sensor_id;sensor_type;location;lat;lon;timestamp;P1;durP1;ratioP1;P2;durP2;ratioP2
11616;SDS011;5864;52.998;9.068;2023-12-20T00:00:22;12.67;;;2.50;;
11616;SDS011;5864;52.998;9.068;2023-12-20T00:03:08;9.07;;;2.03;;
11616;SDS011;5864;52.998;9.068;2023-12-20T00:05:55;7.97;;;2.30;;
11616;SDS011;5864;52.998;9.068;2023-12-20T00:08:40;8.93;;;2.20;;
11616;SDS011;5864;52.998;9.068;2023-12-20T00:11:26;5.67;;;1.80;;
11616;SDS011;5864;52.998;9.068;2023-12-20T00:14:12;5.07;;;1.83;;
11616;SDS011;5864;52.998;9.068;2023-12-20T00:16:57;10.33;;;2.20;;
11616;SDS011;5864;52.998;9.068;2023-12-20T00:19:43;6.73;;;1.93;;
11616;SDS011;5864;52.998;9.068;2023-12-20T00:22:30;10.83;;;3.10;;
11616;SDS011;5864;52.998;9.068;2023-12-20T00:25:15;9.10;;;2.20;;
11616;SDS011;5864;52.998;9.068;2023-12-20T00:28:01;6.17;;;1.97;;
11616;SDS011;5864;52.998;9.068;2023-12-20T00:30:47;11.57;;;2.27;;
11616;SDS011;5864;52.998;9.068;2023-12-20T00:33:33;8.57;;;2.23;;
11616;SDS011;5864;52.998;9.068;2023-12-20T00:36:19;9.33;;;2.23;;
11616;SDS011;5864;52.998;9.068;2023-12-20T00:39:07;7.17;;;2.20;;
11616;SDS011;5864;52.998;9.068;2023-12-20T00:41:52;8.70;;;2.67;;
11616;SDS011;5864;52.998;9.068;2023-12-20T00:44:38;9.63;;;2.37;;
11616;SDS011;5864;52.998;9.068;2023-12-20T00:47:24;10.60;;;2.53;;
11616;SDS011;5864;52.998;9.068;2023-12-20T00:50:09;5.73;;;2.23;;
11616;SDS011;5864;52.998;9.068;2023-12-20T00:52:55;5.53;;;1.77;;
11616;SDS011;5864;52.998;9.068;2023-12-20T00:55:42;5.73;;;1.67;;
11616;SDS011;5864;52.998;9.068;2023-12-20T00:58:29;7.60;;;2.20;;
11616;SDS011;5864;52.998;9.068;2023-12-20T01:01:15;8.10;;;1.97;;
11616;SDS011;5864;52.998;9.068;2023-12-20T01:04:00;8.80;;;2.33;;
11616;SDS011;5864;52.998;9.068;2023-12-20T01:06:46;11.40;;;2.90;;
11616;SDS011;5864;52.998;9.068;2023-12-20T01:09:31;8.50;;;2.17;;
11616;SDS011;5864;52.998;9.068;2023-12-20T01:12:18;7.93;;;2.13;;
11616;SDS011;5864;52.998;9.068;2023-12-20T01:15:06;11.27;;;2.30;;
11616;SDS011;5864;52.998;9.068;2023-12-20T01:17:51;5.90;;;1.90;;
11616;SDS011;5864;52.998;9.068;2023-12-20T01:20:37;7.37;;;2.17;;
11616;SDS011;5864;52.998;9.068;2023-12-20T01:23:23;6.23;;;2.23;;
11616;SDS011;5864;52.998;9.068;2023-12-20T01:26:09;8.43;;;2.00;;
11616;SDS011;5864;52.998;9.068;2023-12-20T01:28:57;11.03;;;2.13;;
11616;SDS011;5864;52.998;9.068;2023-12-20T01:31:42;7.70;;;1.90;;
11616;SDS011;5864;52.998;9.068;2023-12-20T01:34:28;7.23;;;1.83;;
11616;SDS011;5864;52.998;9.068;2023-12-20T01:37:14;8.97;;;2.70;;
11616;SDS011;5864;52.998;9.068;2023-12-20T01:39:59;6.53;;;1.70;;
11616;SDS011;5864;52.998;9.068;2023-12-20T01:42:45;8.67;;;1.90;;
11616;SDS011;5864;52.998;9.068;2023-12-20T01:45:32;5.80;;;2.13;;
11616;SDS011;5864;52.998;9.068;2023-12-20T01:48:18;8.27;;;2.00;;
11616;SDS011;5864;52.998;9.068;2023-12-20T01:51:05;5.70;;;1.90;;
11616;SDS011;5864;52.998;9.068;2023-12-20T01:53:51;8.30;;;2.33;;
11616;SDS011;5864;52.998;9.068;2023-12-20T01:56:37;11.20;;;2.40;;
11616;SDS011;5864;52.998;9.068;2023-12-20T01:59:24;9.13;;;2.43;;
11616;SDS011;5864;52.998;9.068;2023-12-20T02:02:12;9.53;;;2.20;;
11616;SDS011;5864;52.998;9.068;2023-12-20T02:04:57;7.03;;;1.80;;
11616;SDS011;5864;52.998;9.068;2023-12-20T02:07:43;10.30;;;2.43;;
11616;SDS011;5864;52.998;9.068;2023-12-20T02:10:28;6.80;;;2.07;;
11616;SDS011;5864;52.998;9.068;2023-12-20T02:13:15;8.03;;;2.40;;
11616;SDS011;5864;52.998;9.068;2023-12-20T02:16:01;8.80;;;2.40;;
11616;SDS011;5864;52.998;9.068;2023-12-20T02:18:48;6.47;;;2.23;;
11616;SDS011;5864;52.998;9.068;2023-12-20T02:21:35;8.03;;;1.97;;
11616;SDS011;5864;52.998;9.068;2023-12-20T02:24:20;9.27;;;2.90;;
11616;SDS011;5864;52.998;9.068;2023-12-20T02:27:06;6.00;;;2.03;;
11616;SDS011;5864;52.998;9.068;2023-12-20T02:29:52;11.50;;;2.23;;
11616;SDS011;5864;52.998;9.068;2023-12-20T02:32:38;8.83;;;2.10;;
11616;SDS011;5864;52.998;9.068;2023-12-20T02:35:23;11.80;;;3.20;;
11616;SDS011;5864;52.998;9.068;2023-12-20T02:38:10;9.10;;;2.90;;
11616;SDS011;5864;52.998;9.068;2023-12-20T02:40:57;7.20;;;1.90;;
11616;SDS011;5864;52.998;9.068;2023-12-20T02:43:44;7.83;;;2.53;;
11616;SDS011;5864;52.998;9.068;2023-12-20T02:46:30;6.53;;;1.70;;
11616;SDS011;5864;52.998;9.068;2023-12-20T02:49:15;5.20;;;2.00;;
11616;SDS011;5864;52.998;9.068;2023-12-20T02:52:01;10.37;;;2.37;;
11616;SDS011;5864;52.998;9.068;2023-12-20T02:54:49;8.37;;;2.47;;
11616;SDS011;5864;52.998;9.068;2023-12-20T02:57:34;6.37;;;2.00;;
11616;SDS011;5864;52.998;9.068;2023-12-20T03:00:20;7.77;;;2.30;;
11616;SDS011;5864;52.998;9.068;2023-12-20T03:03:06;9.93;;;2.73;;
11616;SDS011;5864;52.998;9.068;2023-12-20T03:05:51;8.33;;;2.13;;
11616;SDS011;5864;52.998;9.068;2023-12-20T03:08:37;10.07;;;2.47;;
11616;SDS011;5864;52.998;9.068;2023-12-20T03:11:27;9.57;;;2.77;;
11616;SDS011;5864;52.998;9.068;2023-12-20T03:14:14;9.57;;;2.40;;
11616;SDS011;5864;52.998;9.068;2023-12-20T03:16:59;6.83;;;2.23;;
11616;SDS011;5864;52.998;9.068;2023-12-20T03:19:45;7.73;;;2.93;;
11616;SDS011;5864;52.998;9.068;2023-12-20T03:22:30;6.40;;;2.07;;
11616;SDS011;5864;52.998;9.068;2023-12-20T03:25:16;9.93;;;2.50;;
11616;SDS011;5864;52.998;9.068;2023-12-20T03:28:03;12.20;;;2.40;;
11616;SDS011;5864;52.998;9.068;2023-12-20T03:30:49;7.03;;;2.73;;
11616;SDS011;5864;52.998;9.068;2023-12-20T03:33:35;10.90;;;2.80;;
11616;SDS011;5864;52.998;9.068;2023-12-20T03:36:21;6.80;;;2.27;;
11616;SDS011;5864;52.998;9.068;2023-12-20T03:39:07;13.93;;;2.77;;
11616;SDS011;5864;52.998;9.068;2023-12-20T03:41:53;11.37;;;2.07;;
11616;SDS011;5864;52.998;9.068;2023-12-20T03:44:40;8.33;;;2.50;;
11616;SDS011;5864;52.998;9.068;2023-12-20T03:47:26;11.60;;;2.67;;
11616;SDS011;5864;52.998;9.068;2023-12-20T03:50:12;10.60;;;2.87;;
11616;SDS011;5864;52.998;9.068;2023-12-20T03:52:58;10.23;;;2.77;;
11616;SDS011;5864;52.998;9.068;2023-12-20T03:55:44;12.03;;;2.93;;
11616;SDS011;5864;52.998;9.068;2023-12-20T03:58:29;7.80;;;2.80;;
11616;SDS011;5864;52.998;9.068;2023-12-20T04:01:17;13.53;;;2.73;;
11616;SDS011;5864;52.998;9.068;2023-12-20T04:04:02;9.13;;;2.93;;
11616;SDS011;5864;52.998;9.068;2023-12-20T04:06:48;11.77;;;2.93;;
11616;SDS011;5864;52.998;9.068;2023-12-20T04:09:34;11.90;;;2.93;;
11616;SDS011;5864;52.998;9.068;2023-12-20T04:12:19;8.27;;;2.60;;
11616;SDS011;5864;52.998;9.068;2023-12-20T04:15:06;16.53;;;3.50;;
11616;SDS011;5864;52.998;9.068;2023-12-20T04:17:54;9.77;;;2.87;;
11616;SDS011;5864;52.998;9.068;2023-12-20T04:20:39;6.33;;;3.03;;
11616;SDS011;5864;52.998;9.068;2023-12-20T04:23:25;9.57;;;3.00;;
11616;SDS011;5864;52.998;9.068;2023-12-20T04:26:11;10.87;;;3.20;;
11616;SDS011;5864;52.998;9.068;2023-12-20T04:28:56;8.87;;;2.67;;
11616;SDS011;5864;52.998;9.068;2023-12-20T04:31:43;10.80;;;3.30;;
11616;SDS011;5864;52.998;9.068;2023-12-20T04:34:30;8.43;;;2.90;;
11616;SDS011;5864;52.998;9.068;2023-12-20T04:37:15;11.20;;;3.23;;
11616;SDS011;5864;52.998;9.068;2023-12-20T04:40:01;12.63;;;3.00;;
11616;SDS011;5864;52.998;9.068;2023-12-20T04:42:49;10.83;;;3.23;;
11616;SDS011;5864;52.998;9.068;2023-12-20T04:45:35;9.87;;;3.10;;
11616;SDS011;5864;52.998;9.068;2023-12-20T04:48:21;9.97;;;2.87;;
11616;SDS011;5864;52.998;9.068;2023-12-20T04:51:08;9.37;;;3.50;;
11616;SDS011;5864;52.998;9.068;2023-12-20T04:53:54;15.27;;;3.23;;
11616;SDS011;5864;52.998;9.068;2023-12-20T04:56:39;9.13;;;2.73;;
11616;SDS011;5864;52.998;9.068;2023-12-20T04:59:25;11.13;;;3.17;;
11616;SDS011;5864;52.998;9.068;2023-12-20T05:02:10;9.47;;;3.00;;
11616;SDS011;5864;52.998;9.068;2023-12-20T05:04:56;10.93;;;3.20;;
11616;SDS011;5864;52.998;9.068;2023-12-20T05:07:43;10.20;;;3.50;;
11616;SDS011;5864;52.998;9.068;2023-12-20T05:10:29;8.90;;;3.03;;
11616;SDS011;5864;52.998;9.068;2023-12-20T05:13:14;13.83;;;3.03;;
11616;SDS011;5864;52.998;9.068;2023-12-20T05:16:00;12.07;;;4.13;;
11616;SDS011;5864;52.998;9.068;2023-12-20T05:18:47;13.40;;;4.50;;
11616;SDS011;5864;52.998;9.068;2023-12-20T05:21:34;12.33;;;3.00;;
11616;SDS011;5864;52.998;9.068;2023-12-20T05:24:22;8.60;;;3.27;;
11616;SDS011;5864;52.998;9.068;2023-12-20T05:27:07;12.13;;;3.60;;
11616;SDS011;5864;52.998;9.068;2023-12-20T05:29:53;11.93;;;3.13;;
11616;SDS011;5864;52.998;9.068;2023-12-20T05:32:41;10.23;;;3.40;;
11616;SDS011;5864;52.998;9.068;2023-12-20T05:35:27;13.80;;;3.57;;
11616;SDS011;5864;52.998;9.068;2023-12-20T05:38:13;15.32;;;4.47;;
11616;SDS011;5864;52.998;9.068;2023-12-20T05:41:01;13.47;;;3.37;;
11616;SDS011;5864;52.998;9.068;2023-12-20T05:43:47;12.77;;;3.30;;
11616;SDS011;5864;52.998;9.068;2023-12-20T05:46:33;9.93;;;3.73;;
11616;SDS011;5864;52.998;9.068;2023-12-20T05:49:18;13.97;;;3.70;;
11616;SDS011;5864;52.998;9.068;2023-12-20T05:52:05;13.53;;;3.70;;
11616;SDS011;5864;52.998;9.068;2023-12-20T05:54:51;15.00;;;3.60;;
11616;SDS011;5864;52.998;9.068;2023-12-20T05:57:38;18.37;;;4.63;;
11616;SDS011;5864;52.998;9.068;2023-12-20T06:00:24;10.07;;;3.00;;
11616;SDS011;5864;52.998;9.068;2023-12-20T06:03:10;14.33;;;3.57;;
11616;SDS011;5864;52.998;9.068;2023-12-20T06:05:56;11.30;;;3.57;;
11616;SDS011;5864;52.998;9.068;2023-12-20T06:08:41;16.00;;;2.80;;
11616;SDS011;5864;52.998;9.068;2023-12-20T06:11:28;8.83;;;3.13;;
11616;SDS011;5864;52.998;9.068;2023-12-20T06:14:15;12.47;;;3.37;;
11616;SDS011;5864;52.998;9.068;2023-12-20T06:17:01;9.67;;;3.10;;
11616;SDS011;5864;52.998;9.068;2023-12-20T06:19:47;14.07;;;3.60;;
11616;SDS011;5864;52.998;9.068;2023-12-20T06:22:33;12.80;;;3.10;;
11616;SDS011;5864;52.998;9.068;2023-12-20T06:25:19;13.07;;;3.23;;
11616;SDS011;5864;52.998;9.068;2023-12-20T06:28:05;18.43;;;3.67;;
11616;SDS011;5864;52.998;9.068;2023-12-20T06:30:52;9.77;;;3.70;;
11616;SDS011;5864;52.998;9.068;2023-12-20T06:33:38;16.20;;;3.70;;
11616;SDS011;5864;52.998;9.068;2023-12-20T06:36:25;9.73;;;2.50;;
11616;SDS011;5864;52.998;9.068;2023-12-20T06:39:11;9.60;;;3.60;;
11616;SDS011;5864;52.998;9.068;2023-12-20T06:41:57;11.53;;;4.43;;
11616;SDS011;5864;52.998;9.068;2023-12-20T06:44:43;14.10;;;4.43;;
11616;SDS011;5864;52.998;9.068;2023-12-20T06:47:30;15.63;;;3.40;;
11616;SDS011;5864;52.998;9.068;2023-12-20T06:50:16;19.03;;;4.50;;
11616;SDS011;5864;52.998;9.068;2023-12-20T06:53:02;11.43;;;4.20;;
11616;SDS011;5864;52.998;9.068;2023-12-20T06:55:51;16.93;;;3.87;;
11616;SDS011;5864;52.998;9.068;2023-12-20T06:58:37;17.03;;;3.77;;
11616;SDS011;5864;52.998;9.068;2023-12-20T07:01:23;15.70;;;3.60;;
11616;SDS011;5864;52.998;9.068;2023-12-20T07:04:11;11.67;;;3.67;;
11616;SDS011;5864;52.998;9.068;2023-12-20T07:06:56;14.43;;;3.53;;
11616;SDS011;5864;52.998;9.068;2023-12-20T07:09:44;11.03;;;3.20;;
11616;SDS011;5864;52.998;9.068;2023-12-20T07:12:30;12.20;;;3.83;;
11616;SDS011;5864;52.998;9.068;2023-12-20T07:15:15;10.87;;;3.63;;
11616;SDS011;5864;52.998;9.068;2023-12-20T07:18:03;19.73;;;4.10;;
11616;SDS011;5864;52.998;9.068;2023-12-20T07:20:51;17.33;;;4.37;;
11616;SDS011;5864;52.998;9.068;2023-12-20T07:23:38;18.37;;;4.07;;
11616;SDS011;5864;52.998;9.068;2023-12-20T07:26:24;17.87;;;4.50;;
11616;SDS011;5864;52.998;9.068;2023-12-20T07:29:09;16.50;;;4.70;;
11616;SDS011;5864;52.998;9.068;2023-12-20T07:31:55;15.87;;;4.10;;
11616;SDS011;5864;52.998;9.068;2023-12-20T07:34:41;16.27;;;3.60;;
11616;SDS011;5864;52.998;9.068;2023-12-20T07:37:28;12.00;;;3.60;;
11616;SDS011;5864;52.998;9.068;2023-12-20T07:40:14;14.27;;;3.67;;
11616;SDS011;5864;52.998;9.068;2023-12-20T07:43:01;14.03;;;4.30;;
11616;SDS011;5864;52.998;9.068;2023-12-20T07:45:46;14.50;;;3.60;;
11616;SDS011;5864;52.998;9.068;2023-12-20T07:48:32;21.10;;;3.97;;
11616;SDS011;5864;52.998;9.068;2023-12-20T07:51:18;21.33;;;4.47;;
11616;SDS011;5864;52.998;9.068;2023-12-20T07:54:06;16.83;;;4.13;;
11616;SDS011;5864;52.998;9.068;2023-12-20T07:56:55;14.43;;;4.40;;
11616;SDS011;5864;52.998;9.068;2023-12-20T07:59:42;17.23;;;4.43;;
11616;SDS011;5864;52.998;9.068;2023-12-20T08:02:28;19.00;;;5.40;;
11616;SDS011;5864;52.998;9.068;2023-12-20T08:05:14;17.13;;;4.13;;
11616;SDS011;5864;52.998;9.068;2023-12-20T08:08:00;21.30;;;5.20;;
11616;SDS011;5864;52.998;9.068;2023-12-20T08:10:47;12.53;;;3.73;;
11616;SDS011;5864;52.998;9.068;2023-12-20T08:13:32;12.73;;;4.17;;
11616;SDS011;5864;52.998;9.068;2023-12-20T08:16:18;16.53;;;4.50;;
11616;SDS011;5864;52.998;9.068;2023-12-20T08:19:04;14.30;;;5.27;;
11616;SDS011;5864;52.998;9.068;2023-12-20T08:21:50;16.40;;;4.67;;
11616;SDS011;5864;52.998;9.068;2023-12-20T08:24:36;17.20;;;4.50;;
11616;SDS011;5864;52.998;9.068;2023-12-20T08:27:23;19.73;;;4.67;;
11616;SDS011;5864;52.998;9.068;2023-12-20T08:30:09;15.03;;;3.77;;
11616;SDS011;5864;52.998;9.068;2023-12-20T08:32:56;23.37;;;4.90;;
11616;SDS011;5864;52.998;9.068;2023-12-20T08:35:42;15.47;;;3.73;;
11616;SDS011;5864;52.998;9.068;2023-12-20T08:38:27;12.70;;;3.43;;
11616;SDS011;5864;52.998;9.068;2023-12-20T08:41:13;15.60;;;4.13;;
11616;SDS011;5864;52.998;9.068;2023-12-20T08:44:00;18.37;;;4.13;;
11616;SDS011;5864;52.998;9.068;2023-12-20T08:46:45;20.27;;;3.90;;
11616;SDS011;5864;52.998;9.068;2023-12-20T08:49:31;13.27;;;3.80;;
11616;SDS011;5864;52.998;9.068;2023-12-20T08:52:17;18.80;;;4.03;;
11616;SDS011;5864;52.998;9.068;2023-12-20T08:55:03;11.87;;;3.33;;
11616;SDS011;5864;52.998;9.068;2023-12-20T08:57:49;16.10;;;4.50;;
11616;SDS011;5864;52.998;9.068;2023-12-20T09:00:36;16.80;;;3.73;;
11616;SDS011;5864;52.998;9.068;2023-12-20T09:03:22;10.33;;;3.63;;
11616;SDS011;5864;52.998;9.068;2023-12-20T09:06:08;14.03;;;4.07;;
11616;SDS011;5864;52.998;9.068;2023-12-20T09:08:54;11.30;;;3.60;;
11616;SDS011;5864;52.998;9.068;2023-12-20T09:11:39;15.10;;;3.30;;
11616;SDS011;5864;52.998;9.068;2023-12-20T09:14:25;16.00;;;3.23;;
11616;SDS011;5864;52.998;9.068;2023-12-20T09:17:12;10.37;;;3.70;;
11616;SDS011;5864;52.998;9.068;2023-12-20T09:19:58;15.13;;;3.40;;
11616;SDS011;5864;52.998;9.068;2023-12-20T09:22:44;14.13;;;3.47;;
11616;SDS011;5864;52.998;9.068;2023-12-20T09:25:30;15.93;;;3.87;;
11616;SDS011;5864;52.998;9.068;2023-12-20T09:28:16;13.87;;;3.23;;
11616;SDS011;5864;52.998;9.068;2023-12-20T09:31:01;15.40;;;3.97;;
11616;SDS011;5864;52.998;9.068;2023-12-20T09:33:49;10.23;;;3.63;;
11616;SDS011;5864;52.998;9.068;2023-12-20T09:36:35;14.50;;;3.73;;
11616;SDS011;5864;52.998;9.068;2023-12-20T09:39:22;13.37;;;3.30;;
11616;SDS011;5864;52.998;9.068;2023-12-20T09:42:08;15.37;;;3.93;;
11616;SDS011;5864;52.998;9.068;2023-12-20T09:44:58;15.13;;;3.60;;
11616;SDS011;5864;52.998;9.068;2023-12-20T09:47:46;10.57;;;2.90;;
11616;SDS011;5864;52.998;9.068;2023-12-20T09:50:35;13.70;;;4.17;;
11616;SDS011;5864;52.998;9.068;2023-12-20T09:53:21;10.57;;;3.13;;
11616;SDS011;5864;52.998;9.068;2023-12-20T09:56:13;11.73;;;3.60;;
11616;SDS011;5864;52.998;9.068;2023-12-20T09:59:00;11.63;;;3.10;;
11616;SDS011;5864;52.998;9.068;2023-12-20T10:01:46;10.20;;;3.10;;
11616;SDS011;5864;52.998;9.068;2023-12-20T10:04:32;11.30;;;4.90;;
11616;SDS011;5864;52.998;9.068;2023-12-20T10:07:19;16.33;;;3.30;;
11616;SDS011;5864;52.998;9.068;2023-12-20T10:10:06;9.63;;;2.87;;
11616;SDS011;5864;52.998;9.068;2023-12-20T10:13:02;6.90;;;2.10;;
11616;SDS011;5864;52.998;9.068;2023-12-20T10:15:49;4.40;;;1.93;;
11616;SDS011;5864;52.998;9.068;2023-12-20T10:18:34;8.10;;;2.17;;
11616;SDS011;5864;52.998;9.068;2023-12-20T10:21:20;5.50;;;1.60;;
11616;SDS011;5864;52.998;9.068;2023-12-20T10:24:09;5.17;;;1.30;;
11616;SDS011;5864;52.998;9.068;2023-12-20T10:27:01;2.60;;;1.20;;
11616;SDS011;5864;52.998;9.068;2023-12-20T10:29:48;5.40;;;1.27;;
11616;SDS011;5864;52.998;9.068;2023-12-20T10:32:34;4.87;;;1.23;;
11616;SDS011;5864;52.998;9.068;2023-12-20T10:35:20;3.30;;;1.10;;
11616;SDS011;5864;52.998;9.068;2023-12-20T10:38:06;2.57;;;1.10;;
11616;SDS011;5864;52.998;9.068;2023-12-20T10:40:54;2.83;;;1.13;;
11616;SDS011;5864;52.998;9.068;2023-12-20T10:43:42;2.40;;;1.23;;
11616;SDS011;5864;52.998;9.068;2023-12-20T10:46:29;1.97;;;0.90;;
11616;SDS011;5864;52.998;9.068;2023-12-20T10:49:17;2.03;;;0.90;;
11616;SDS011;5864;52.998;9.068;2023-12-20T10:52:04;3.50;;;1.00;;
11616;SDS011;5864;52.998;9.068;2023-12-20T10:54:51;2.60;;;1.10;;
11616;SDS011;5864;52.998;9.068;2023-12-20T10:57:39;2.57;;;1.03;;
11616;SDS011;5864;52.998;9.068;2023-12-20T11:00:24;3.93;;;1.20;;
11616;SDS011;5864;52.998;9.068;2023-12-20T11:03:11;2.80;;;1.20;;
11616;SDS011;5864;52.998;9.068;2023-12-20T11:05:58;3.77;;;1.27;;
11616;SDS011;5864;52.998;9.068;2023-12-20T11:08:50;3.27;;;1.07;;
11616;SDS011;5864;52.998;9.068;2023-12-20T11:11:44;1.70;;;1.00;;
11616;SDS011;5864;52.998;9.068;2023-12-20T11:14:50;2.47;;;1.27;;
11616;SDS011;5864;52.998;9.068;2023-12-20T11:17:39;4.00;;;1.30;;
11616;SDS011;5864;52.998;9.068;2023-12-20T11:20:34;7.10;;;1.40;;
11616;SDS011;5864;52.998;9.068;2023-12-20T11:23:21;3.87;;;1.30;;
11616;SDS011;5864;52.998;9.068;2023-12-20T11:26:08;2.37;;;1.27;;
11616;SDS011;5864;52.998;9.068;2023-12-20T11:28:53;4.53;;;1.30;;
11616;SDS011;5864;52.998;9.068;2023-12-20T11:31:41;3.77;;;1.23;;
11616;SDS011;5864;52.998;9.068;2023-12-20T11:34:27;5.00;;;1.40;;
11616;SDS011;5864;52.998;9.068;2023-12-20T11:37:13;4.50;;;1.53;;
11616;SDS011;5864;52.998;9.068;2023-12-20T11:40:00;4.20;;;1.53;;
11616;SDS011;5864;52.998;9.068;2023-12-20T11:42:48;3.83;;;2.03;;
11616;SDS011;5864;52.998;9.068;2023-12-20T11:45:35;3.37;;;1.40;;
11616;SDS011;5864;52.998;9.068;2023-12-20T11:48:22;5.80;;;1.80;;
11616;SDS011;5864;52.998;9.068;2023-12-20T11:51:09;3.70;;;1.47;;
11616;SDS011;5864;52.998;9.068;2023-12-20T11:53:54;4.73;;;1.80;;
11616;SDS011;5864;52.998;9.068;2023-12-20T11:56:40;8.50;;;2.20;;
11616;SDS011;5864;52.998;9.068;2023-12-20T11:59:26;5.33;;;1.63;;
11616;SDS011;5864;52.998;9.068;2023-12-20T12:02:12;7.73;;;2.77;;
11616;SDS011;5864;52.998;9.068;2023-12-20T12:05:00;8.40;;;2.87;;
11616;SDS011;5864;52.998;9.068;2023-12-20T12:07:45;5.43;;;2.23;;
11616;SDS011;5864;52.998;9.068;2023-12-20T12:10:31;6.53;;;2.13;;
11616;SDS011;5864;52.998;9.068;2023-12-20T12:13:17;7.37;;;1.83;;
11616;SDS011;5864;52.998;9.068;2023-12-20T12:16:03;11.90;;;2.40;;
11616;SDS011;5864;52.998;9.068;2023-12-20T12:18:55;8.43;;;2.20;;
11616;SDS011;5864;52.998;9.068;2023-12-20T12:21:43;7.03;;;2.10;;
11616;SDS011;5864;52.998;9.068;2023-12-20T12:24:28;10.97;;;2.87;;
11616;SDS011;5864;52.998;9.068;2023-12-20T12:27:14;11.40;;;2.77;;
11616;SDS011;5864;52.998;9.068;2023-12-20T12:30:00;10.00;;;2.47;;
11616;SDS011;5864;52.998;9.068;2023-12-20T12:32:47;10.50;;;2.80;;
11616;SDS011;5864;52.998;9.068;2023-12-20T12:35:33;9.80;;;2.47;;
11616;SDS011;5864;52.998;9.068;2023-12-20T12:38:21;9.37;;;2.47;;
11616;SDS011;5864;52.998;9.068;2023-12-20T12:41:07;11.20;;;2.77;;
11616;SDS011;5864;52.998;9.068;2023-12-20T12:43:53;9.33;;;2.03;;
11616;SDS011;5864;52.998;9.068;2023-12-20T12:46:39;7.10;;;2.30;;
11616;SDS011;5864;52.998;9.068;2023-12-20T12:49:25;12.37;;;2.33;;
11616;SDS011;5864;52.998;9.068;2023-12-20T12:52:13;9.87;;;2.70;;
11616;SDS011;5864;52.998;9.068;2023-12-20T12:55:00;10.50;;;2.67;;
11616;SDS011;5864;52.998;9.068;2023-12-20T12:57:47;8.67;;;2.53;;
11616;SDS011;5864;52.998;9.068;2023-12-20T13:00:32;6.97;;;2.27;;
11616;SDS011;5864;52.998;9.068;2023-12-20T13:03:18;11.63;;;2.13;;
11616;SDS011;5864;52.998;9.068;2023-12-20T13:06:04;7.83;;;2.13;;
11616;SDS011;5864;52.998;9.068;2023-12-20T13:08:52;10.80;;;3.10;;
11616;SDS011;5864;52.998;9.068;2023-12-20T13:11:40;9.90;;;2.57;;
11616;SDS011;5864;52.998;9.068;2023-12-20T13:14:25;9.30;;;2.17;;
11616;SDS011;5864;52.998;9.068;2023-12-20T13:17:11;7.10;;;2.23;;
11616;SDS011;5864;52.998;9.068;2023-12-20T13:19:57;11.03;;;2.73;;
11616;SDS011;5864;52.998;9.068;2023-12-20T13:22:43;10.77;;;2.43;;
11616;SDS011;5864;52.998;9.068;2023-12-20T13:25:29;12.83;;;2.97;;
11616;SDS011;5864;52.998;9.068;2023-12-20T13:28:16;9.97;;;2.40;;
11616;SDS011;5864;52.998;9.068;2023-12-20T13:31:02;10.10;;;2.50;;
11616;SDS011;5864;52.998;9.068;2023-12-20T13:33:48;11.27;;;3.60;;
11616;SDS011;5864;52.998;9.068;2023-12-20T13:36:35;14.43;;;3.40;;
11616;SDS011;5864;52.998;9.068;2023-12-20T13:39:21;10.63;;;2.50;;
11616;SDS011;5864;52.998;9.068;2023-12-20T13:42:06;12.90;;;3.10;;
11616;SDS011;5864;52.998;9.068;2023-12-20T13:44:54;7.67;;;1.97;;
11616;SDS011;5864;52.998;9.068;2023-12-20T13:47:39;12.00;;;2.77;;
11616;SDS011;5864;52.998;9.068;2023-12-20T13:50:25;11.10;;;2.47;;
11616;SDS011;5864;52.998;9.068;2023-12-20T13:53:11;7.00;;;2.20;;
11616;SDS011;5864;52.998;9.068;2023-12-20T13:55:57;9.60;;;2.33;;
11616;SDS011;5864;52.998;9.068;2023-12-20T13:58:43;9.30;;;2.57;;
11616;SDS011;5864;52.998;9.068;2023-12-20T14:01:31;11.97;;;2.30;;
11616;SDS011;5864;52.998;9.068;2023-12-20T14:04:16;10.17;;;2.43;;
11616;SDS011;5864;52.998;9.068;2023-12-20T14:07:02;9.80;;;2.20;;
11616;SDS011;5864;52.998;9.068;2023-12-20T14:09:48;11.10;;;2.70;;
11616;SDS011;5864;52.998;9.068;2023-12-20T14:12:35;11.30;;;2.83;;
11616;SDS011;5864;52.998;9.068;2023-12-20T14:15:21;7.90;;;2.43;;
11616;SDS011;5864;52.998;9.068;2023-12-20T14:18:11;9.07;;;2.53;;
11616;SDS011;5864;52.998;9.068;2023-12-20T14:20:59;7.90;;;2.43;;
11616;SDS011;5864;52.998;9.068;2023-12-20T14:23:44;9.50;;;2.30;;
11616;SDS011;5864;52.998;9.068;2023-12-20T14:26:30;10.40;;;2.80;;
11616;SDS011;5864;52.998;9.068;2023-12-20T14:29:15;9.33;;;2.53;;
11616;SDS011;5864;52.998;9.068;2023-12-20T14:32:02;7.93;;;2.27;;
11616;SDS011;5864;52.998;9.068;2023-12-20T14:34:50;8.70;;;2.90;;
11616;SDS011;5864;52.998;9.068;2023-12-20T14:37:36;7.43;;;2.33;;
11616;SDS011;5864;52.998;9.068;2023-12-20T14:40:24;11.47;;;2.93;;
11616;SDS011;5864;52.998;9.068;2023-12-20T14:43:10;13.10;;;2.77;;
11616;SDS011;5864;52.998;9.068;2023-12-20T14:45:56;11.50;;;2.23;;
11616;SDS011;5864;52.998;9.068;2023-12-20T14:48:42;8.27;;;2.43;;
11616;SDS011;5864;52.998;9.068;2023-12-20T14:51:29;16.97;;;4.80;;
11616;SDS011;5864;52.998;9.068;2023-12-20T14:54:15;8.43;;;3.23;;
11616;SDS011;5864;52.998;9.068;2023-12-20T14:57:01;11.67;;;3.40;;
11616;SDS011;5864;52.998;9.068;2023-12-20T14:59:48;18.03;;;6.53;;
11616;SDS011;5864;52.998;9.068;2023-12-20T15:02:33;13.27;;;6.30;;
11616;SDS011;5864;52.998;9.068;2023-12-20T15:05:19;9.63;;;3.43;;
11616;SDS011;5864;52.998;9.068;2023-12-20T15:08:06;9.90;;;4.87;;
11616;SDS011;5864;52.998;9.068;2023-12-20T15:10:54;14.52;;;8.35;;
11616;SDS011;5864;52.998;9.068;2023-12-20T15:13:40;10.97;;;4.60;;
11616;SDS011;5864;52.998;9.068;2023-12-20T15:16:26;9.43;;;3.83;;
11616;SDS011;5864;52.998;9.068;2023-12-20T15:19:12;15.53;;;5.37;;
11616;SDS011;5864;52.998;9.068;2023-12-20T15:21:58;11.33;;;3.90;;
11616;SDS011;5864;52.998;9.068;2023-12-20T15:24:46;10.00;;;3.70;;
11616;SDS011;5864;52.998;9.068;2023-12-20T15:27:32;11.13;;;6.33;;
11616;SDS011;5864;52.998;9.068;2023-12-20T15:30:19;11.57;;;3.77;;
11616;SDS011;5864;52.998;9.068;2023-12-20T15:33:05;14.43;;;7.57;;
11616;SDS011;5864;52.998;9.068;2023-12-20T15:35:51;10.30;;;5.13;;
11616;SDS011;5864;52.998;9.068;2023-12-20T15:38:37;12.80;;;3.60;;
11616;SDS011;5864;52.998;9.068;2023-12-20T15:41:25;10.27;;;3.37;;
11616;SDS011;5864;52.998;9.068;2023-12-20T15:44:10;13.07;;;4.10;;
11616;SDS011;5864;52.998;9.068;2023-12-20T15:46:56;15.23;;;3.37;;
11616;SDS011;5864;52.998;9.068;2023-12-20T15:49:42;11.93;;;3.37;;
11616;SDS011;5864;52.998;9.068;2023-12-20T15:52:29;6.93;;;2.90;;
11616;SDS011;5864;52.998;9.068;2023-12-20T15:55:15;11.93;;;4.13;;
11616;SDS011;5864;52.998;9.068;2023-12-20T15:58:02;12.13;;;4.23;;
11616;SDS011;5864;52.998;9.068;2023-12-20T16:00:47;9.27;;;3.40;;
11616;SDS011;5864;52.998;9.068;2023-12-20T16:03:34;10.33;;;3.50;;
11616;SDS011;5864;52.998;9.068;2023-12-20T16:06:20;17.53;;;3.77;;
11616;SDS011;5864;52.998;9.068;2023-12-20T16:09:06;9.50;;;3.83;;
11616;SDS011;5864;52.998;9.068;2023-12-20T16:11:52;6.90;;;3.00;;
11616;SDS011;5864;52.998;9.068;2023-12-20T16:14:40;8.93;;;3.07;;
11616;SDS011;5864;52.998;9.068;2023-12-20T16:17:25;12.17;;;3.17;;
11616;SDS011;5864;52.998;9.068;2023-12-20T16:20:11;17.13;;;4.87;;
11616;SDS011;5864;52.998;9.068;2023-12-20T16:22:56;11.43;;;3.17;;
11616;SDS011;5864;52.998;9.068;2023-12-20T16:25:42;13.63;;;2.63;;
11616;SDS011;5864;52.998;9.068;2023-12-20T16:28:27;11.53;;;4.03;;
11616;SDS011;5864;52.998;9.068;2023-12-20T16:31:14;10.37;;;4.40;;
11616;SDS011;5864;52.998;9.068;2023-12-20T16:34:00;9.47;;;2.63;;
11616;SDS011;5864;52.998;9.068;2023-12-20T16:36:50;6.97;;;2.70;;
11616;SDS011;5864;52.998;9.068;2023-12-20T16:39:38;6.40;;;2.40;;
11616;SDS011;5864;52.998;9.068;2023-12-20T16:42:24;7.87;;;2.50;;
11616;SDS011;5864;52.998;9.068;2023-12-20T16:45:09;11.20;;;3.20;;
11616;SDS011;5864;52.998;9.068;2023-12-20T16:47:56;9.17;;;2.40;;
11616;SDS011;5864;52.998;9.068;2023-12-20T16:50:42;8.93;;;2.93;;